createdAt,value
2022-12-24T00:00:57.329Z,23.95
2022-12-24T00:03:24.270Z,23.94
2022-12-24T00:05:51.485Z,23.93
2022-12-24T00:08:18.790Z,23.91
2022-12-24T00:10:49.770Z,23.90
2022-12-24T00:13:16.365Z,23.89
2022-12-24T00:15:42.924Z,23.87
2022-12-24T00:18:09.545Z,23.85
2022-12-24T00:20:36.104Z,23.84
2022-12-24T00:23:02.663Z,23.79
2022-12-24T00:25:29.249Z,23.82
2022-12-24T00:27:56.366Z,23.81
2022-12-24T00:30:22.923Z,23.80
2022-12-24T00:32:49.558Z,23.79
2022-12-24T00:35:16.187Z,23.76
2022-12-24T00:37:42.933Z,23.75
2022-12-24T00:40:09.770Z,23.75
2022-12-24T00:42:36.328Z,23.73
2022-12-24T00:45:02.890Z,23.72
2022-12-24T00:47:29.522Z,23.71
2022-12-24T00:49:56.584Z,23.69
2022-12-24T00:52:23.197Z,23.69
2022-12-24T00:54:49.760Z,23.69
2022-12-24T00:57:16.448Z,23.67
2022-12-24T00:59:42.950Z,23.65
2022-12-24T01:02:09.935Z,23.64
2022-12-24T01:04:55.268Z,23.64
2022-12-24T01:07:21.831Z,23.61
2022-12-24T01:09:48.439Z,23.57
2022-12-24T01:12:15.953Z,23.55
2022-12-24T01:14:42.531Z,23.58
2022-12-24T01:17:10.608Z,23.57
2022-12-24T01:19:37.275Z,23.56
2022-12-24T01:22:03.967Z,23.53
2022-12-24T01:24:30.944Z,23.53
2022-12-24T01:26:57.501Z,23.52
2022-12-24T01:29:24.107Z,23.51
2022-12-24T01:31:51.131Z,23.51
2022-12-24T01:34:17.664Z,23.44
2022-12-24T01:36:45.900Z,23.48
2022-12-24T01:39:12.512Z,23.48
2022-12-24T01:41:57.866Z,23.47
2022-12-24T01:44:36.235Z,23.46
2022-12-24T01:47:10.035Z,23.41
2022-12-24T01:49:39.049Z,23.44
2022-12-24T01:52:09.399Z,23.40
2022-12-24T01:54:40.698Z,23.43
2022-12-24T01:57:10.978Z,23.40
2022-12-24T01:59:38.969Z,23.41
2022-12-24T02:02:06.109Z,23.39
2022-12-24T02:04:44.465Z,23.38
2022-12-24T02:07:13.494Z,23.38
2022-12-24T02:09:40.168Z,23.37
2022-12-24T02:12:07.121Z,23.36
2022-12-24T02:14:34.345Z,23.36
2022-12-24T02:17:16.326Z,23.34
2022-12-24T02:20:01.003Z,23.34
2022-12-24T02:22:37.900Z,23.33
2022-12-24T02:25:20.320Z,23.32
2022-12-24T02:27:54.620Z,23.32
2022-12-24T02:30:23.924Z,23.31
2022-12-24T02:33:09.057Z,23.30
2022-12-24T02:35:44.751Z,23.30
2022-12-24T02:38:19.584Z,23.29
2022-12-24T02:41:05.305Z,23.28
2022-12-24T02:43:39.846Z,23.27
2022-12-24T02:46:10.253Z,23.26
2022-12-24T02:48:37.896Z,23.26
2022-12-24T02:51:06.722Z,23.25
2022-12-24T02:53:34.097Z,23.24
2022-12-24T02:56:09.802Z,23.23
2022-12-24T02:59:08.381Z,23.18
2022-12-24T03:02:06.439Z,23.23
2022-12-24T03:04:57.653Z,23.23
2022-12-24T03:07:36.298Z,23.22
2022-12-24T03:10:14.959Z,23.20
2022-12-24T03:12:44.853Z,23.20
2022-12-24T03:15:15.370Z,23.19
2022-12-24T03:17:44.025Z,23.19
2022-12-24T03:20:12.089Z,23.18
2022-12-24T03:22:38.922Z,23.18
2022-12-24T03:25:05.742Z,23.17
2022-12-24T03:27:33.433Z,23.15
2022-12-24T03:30:00.188Z,23.17
2022-12-24T03:32:31.593Z,23.16
2022-12-24T03:34:58.294Z,23.15
2022-12-24T03:37:25.593Z,23.15
2022-12-24T03:39:52.592Z,23.14
2022-12-24T03:42:19.340Z,23.14
2022-12-24T03:44:45.902Z,23.14
2022-12-24T03:47:12.741Z,23.14
2022-12-24T03:49:39.410Z,23.13
2022-12-24T03:52:05.916Z,23.14
2022-12-24T03:54:32.796Z,23.13
2022-12-24T03:56:59.339Z,23.13
2022-12-24T03:59:27.684Z,22.99
2022-12-24T04:01:54.506Z,23.12
2022-12-24T04:04:21.348Z,23.10
2022-12-24T04:06:47.880Z,23.10
2022-12-24T04:09:15.696Z,23.10
2022-12-24T04:11:42.434Z,23.10
2022-12-24T04:14:09.785Z,23.10
2022-12-24T04:16:36.444Z,23.05
2022-12-24T04:19:03.218Z,23.08
2022-12-24T04:21:29.839Z,23.08
2022-12-24T04:23:56.427Z,23.07
2022-12-24T04:26:22.952Z,23.03
2022-12-24T04:28:49.885Z,23.03
2022-12-24T04:31:17.532Z,23.07
2022-12-24T04:33:44.632Z,23.06
2022-12-24T04:36:14.198Z,23.06
2022-12-24T04:38:40.856Z,23.04
2022-12-24T04:41:22.693Z,23.05
2022-12-24T04:43:51.042Z,23.05
2022-12-24T04:46:22.224Z,23.04
2022-12-24T04:48:51.405Z,23.04
2022-12-24T04:51:19.037Z,23.02
2022-12-24T04:53:45.661Z,23.01
2022-12-24T04:56:14.129Z,23.04
2022-12-24T04:58:41.008Z,23.04
2022-12-24T05:01:14.014Z,23.03
2022-12-24T05:03:40.820Z,23.01
2022-12-24T05:06:09.377Z,22.98
2022-12-24T05:08:36.089Z,23.02
2022-12-24T05:11:03.213Z,23.01
2022-12-24T05:13:37.657Z,23.01
2022-12-24T05:16:09.420Z,23.00
2022-12-24T05:18:36.204Z,22.98
2022-12-24T05:21:03.305Z,23.01
2022-12-24T05:23:48.510Z,23.00
2022-12-24T05:26:24.120Z,23.01
2022-12-24T05:28:55.665Z,23.00
2022-12-24T05:31:24.226Z,22.96
2022-12-24T05:33:50.896Z,23.01
2022-12-24T05:36:17.511Z,23.00
2022-12-24T05:38:44.027Z,22.99
2022-12-24T05:41:10.785Z,23.01
2022-12-24T05:43:38.123Z,23.00
2022-12-24T05:46:06.943Z,23.00
2022-12-24T05:48:34.991Z,23.00
2022-12-24T05:51:07.259Z,22.94
2022-12-24T05:53:35.121Z,22.99
2022-12-24T05:56:07.350Z,22.98
2022-12-24T05:58:34.203Z,22.99
2022-12-24T06:01:02.466Z,23.00
2022-12-24T06:03:29.720Z,23.00
2022-12-24T06:06:04.578Z,23.00
2022-12-24T06:08:31.447Z,23.01
2022-12-24T06:10:59.136Z,23.02
2022-12-24T06:13:26.362Z,23.03
2022-12-24T06:15:59.863Z,22.95
2022-12-24T06:18:26.658Z,22.91
2022-12-24T06:20:55.334Z,22.99
2022-12-24T06:23:22.984Z,22.99
2022-12-24T06:25:49.954Z,22.99
2022-12-24T06:28:17.379Z,22.95
2022-12-24T06:30:50.082Z,22.98
2022-12-24T06:33:17.277Z,22.99
2022-12-24T06:35:45.482Z,22.98
2022-12-24T06:38:12.554Z,22.97
2022-12-24T06:40:39.791Z,22.97
2022-12-24T06:43:06.450Z,22.97
2022-12-24T06:45:33.249Z,22.96
2022-12-24T06:48:00.744Z,22.97
2022-12-24T06:50:27.765Z,22.97
2022-12-24T06:52:54.379Z,22.98
2022-12-24T06:55:21.616Z,22.98
2022-12-24T06:57:48.261Z,22.97
2022-12-24T07:00:15.284Z,22.97
2022-12-24T07:02:43.011Z,22.96
2022-12-24T07:05:10.586Z,22.95
2022-12-24T07:07:39.117Z,22.94
2022-12-24T07:10:08.520Z,22.94
2022-12-24T07:12:35.359Z,22.94
2022-12-24T07:15:01.924Z,22.93
2022-12-24T07:17:28.579Z,22.95
2022-12-24T07:19:56.119Z,22.86
2022-12-24T07:22:22.670Z,22.77
2022-12-24T07:24:49.286Z,22.68
2022-12-24T07:27:16.210Z,22.63
2022-12-24T07:29:42.796Z,22.58
2022-12-24T07:32:10.655Z,22.54
2022-12-24T07:34:37.503Z,22.47
2022-12-24T07:37:04.090Z,22.50
2022-12-24T07:39:30.626Z,22.47
2022-12-24T07:41:57.196Z,22.46
2022-12-24T07:44:24.979Z,22.44
2022-12-24T07:46:52.413Z,22.44
2022-12-24T07:49:19.187Z,22.41
2022-12-24T07:51:45.843Z,22.42
2022-12-24T07:54:12.604Z,22.41
2022-12-24T07:56:39.326Z,22.41
2022-12-24T07:59:06.018Z,22.41
2022-12-24T08:01:33.703Z,22.41
2022-12-24T08:04:00.757Z,22.41
2022-12-24T08:06:27.437Z,22.40
2022-12-24T08:08:54.327Z,22.42
2022-12-24T08:11:20.893Z,22.47
2022-12-24T08:13:47.460Z,22.43
2022-12-24T08:16:14.084Z,22.50
2022-12-24T08:18:41.045Z,22.49
2022-12-24T08:21:08.507Z,22.49
2022-12-24T08:23:35.890Z,22.47
2022-12-24T08:26:03.100Z,22.40
2022-12-24T08:28:29.666Z,22.46
2022-12-24T08:30:56.330Z,22.46
2022-12-24T08:33:22.954Z,22.45
2022-12-24T08:35:51.568Z,22.44
2022-12-24T08:38:18.424Z,22.45
2022-12-24T08:40:47.229Z,22.43
2022-12-24T08:43:13.760Z,22.43
2022-12-24T08:45:43.036Z,22.43
2022-12-24T08:48:10.567Z,22.40
2022-12-24T08:50:41.241Z,22.41
2022-12-24T08:53:09.230Z,22.38
2022-12-24T08:55:35.922Z,22.30
2022-12-24T08:58:02.687Z,22.20
2022-12-24T09:00:29.533Z,22.19
2022-12-24T09:02:56.693Z,22.15
2022-12-24T09:05:23.728Z,22.14
2022-12-24T09:07:50.638Z,22.14
2022-12-24T09:10:17.342Z,22.14
2022-12-24T09:12:43.931Z,22.16
2022-12-24T09:15:10.826Z,22.20
2022-12-24T09:17:37.702Z,22.19
2022-12-24T09:20:04.732Z,22.23
2022-12-24T09:22:31.372Z,22.24
2022-12-24T09:24:57.941Z,22.27
2022-12-24T09:27:24.507Z,22.27
2022-12-24T09:29:51.062Z,22.26
2022-12-24T09:32:18.175Z,22.22
2022-12-24T09:34:44.936Z,22.20
2022-12-24T09:37:12.068Z,22.19
2022-12-24T09:39:39.468Z,22.20
2022-12-24T09:42:42.736Z,22.24
2022-12-24T09:45:26.928Z,22.29
2022-12-24T09:47:56.304Z,22.32
2022-12-24T09:50:46.477Z,22.35
2022-12-24T09:53:22.441Z,22.39
2022-12-24T09:55:52.197Z,22.44
2022-12-24T09:58:49.242Z,22.48
2022-12-24T10:01:17.039Z,22.52
2022-12-24T10:03:43.718Z,22.56
2022-12-24T10:06:28.962Z,22.60
2022-12-24T10:09:08.694Z,22.63
2022-12-24T10:11:53.388Z,22.68
2022-12-24T10:14:28.905Z,22.73
2022-12-24T10:17:14.157Z,22.79
2022-12-24T10:19:51.097Z,22.83
2022-12-24T10:22:38.557Z,22.89
2022-12-24T10:25:21.794Z,22.94
2022-12-24T10:27:48.444Z,22.98
2022-12-24T10:30:19.691Z,23.00
2022-12-24T10:32:51.302Z,23.01
2022-12-24T10:35:20.440Z,23.02
2022-12-24T10:37:49.026Z,23.03
2022-12-24T10:40:38.268Z,23.06
2022-12-24T10:43:14.812Z,23.12
2022-12-24T10:45:44.646Z,23.15
2022-12-24T10:48:19.154Z,23.15
2022-12-24T10:50:56.745Z,23.17
2022-12-24T10:53:37.125Z,23.20
2022-12-24T10:56:07.739Z,23.26
2022-12-24T10:58:35.152Z,23.30
2022-12-24T11:01:02.447Z,23.33
2022-12-24T11:03:34.908Z,23.37
2022-12-24T11:06:15.794Z,23.40
2022-12-24T11:08:44.043Z,23.45
2022-12-24T11:11:19.202Z,23.48
2022-12-24T11:13:53.699Z,23.52
2022-12-24T11:16:26.010Z,23.55
2022-12-24T11:18:57.538Z,23.57
2022-12-24T11:21:32.843Z,23.61
2022-12-24T11:24:08.839Z,23.68
2022-12-24T11:26:35.655Z,23.74
2022-12-24T11:29:06.179Z,23.77
2022-12-24T11:31:37.521Z,23.79
2022-12-24T11:34:24.567Z,23.87
2022-12-24T11:36:52.082Z,23.93
2022-12-24T11:39:23.535Z,23.99
2022-12-24T11:41:53.786Z,24.03
2022-12-24T11:44:26.063Z,24.09
2022-12-24T11:46:58.456Z,24.13
2022-12-24T11:49:31.987Z,24.13
2022-12-24T11:52:11.833Z,24.20
2022-12-24T11:55:10.302Z,24.24
2022-12-24T11:57:52.216Z,24.28
2022-12-24T12:00:18.784Z,24.30
2022-12-24T12:02:48.308Z,24.33
2022-12-24T12:05:33.727Z,24.36
2022-12-24T12:08:13.432Z,24.40
2022-12-24T12:10:41.185Z,24.45
2022-12-24T12:13:17.709Z,24.46
2022-12-24T12:15:45.889Z,24.53
2022-12-24T12:18:20.568Z,24.56
2022-12-24T12:21:01.013Z,24.60
2022-12-24T12:23:34.410Z,24.61
2022-12-24T12:26:19.177Z,24.64
2022-12-24T12:28:54.152Z,24.67
2022-12-24T12:31:27.904Z,24.68
2022-12-24T12:34:13.812Z,24.69
2022-12-24T12:36:45.452Z,24.67
2022-12-24T12:39:12.123Z,24.68
2022-12-24T12:42:03.027Z,24.64
2022-12-24T12:44:42.790Z,24.63
2022-12-24T12:47:13.110Z,24.62
2022-12-24T12:50:08.225Z,24.61
2022-12-24T12:53:17.680Z,24.59
2022-12-24T12:56:02.022Z,24.58
2022-12-24T12:58:47.010Z,24.57
2022-12-24T13:01:18.961Z,24.57
2022-12-24T13:03:48.721Z,24.55
2022-12-24T13:06:53.397Z,24.53
2022-12-24T13:09:34.283Z,24.52
2022-12-24T13:12:21.987Z,24.51
2022-12-24T13:15:27.103Z,24.48
2022-12-24T13:18:08.779Z,24.43
2022-12-24T13:20:42.402Z,24.36
2022-12-24T13:23:18.364Z,24.37
2022-12-24T13:25:47.012Z,24.42
2022-12-24T13:28:20.706Z,24.43
2022-12-24T13:30:52.455Z,24.44
2022-12-24T13:33:37.232Z,24.41
2022-12-24T13:36:10.091Z,24.39
2022-12-24T13:38:47.693Z,24.39
2022-12-24T13:41:40.107Z,24.38
2022-12-24T13:44:06.911Z,24.37
2022-12-24T13:47:04.914Z,24.35
2022-12-24T13:49:39.015Z,24.33
2022-12-24T13:52:18.894Z,24.33
2022-12-24T13:54:54.703Z,24.30
2022-12-24T13:57:41.050Z,24.29
2022-12-24T14:00:26.757Z,24.26
2022-12-24T14:02:57.753Z,24.30
2022-12-24T14:05:38.010Z,24.37
2022-12-24T14:08:07.815Z,24.43
2022-12-24T14:10:43.455Z,24.51
2022-12-24T14:13:48.711Z,24.54
2022-12-24T14:16:32.272Z,24.57
2022-12-24T14:19:18.294Z,24.61
2022-12-24T14:22:04.464Z,24.62
2022-12-24T14:24:37.005Z,24.66
2022-12-24T14:27:17.842Z,24.67
2022-12-24T14:29:53.479Z,24.68
2022-12-24T14:32:20.099Z,24.69
2022-12-24T14:34:46.725Z,24.70
2022-12-24T14:37:14.239Z,24.70
2022-12-24T14:39:47.758Z,24.72
2022-12-24T14:42:47.905Z,24.72
2022-12-24T14:45:39.332Z,24.71
2022-12-24T14:48:19.337Z,24.75
2022-12-24T14:51:02.980Z,24.74
2022-12-24T14:54:03.596Z,24.76
2022-12-24T14:56:32.293Z,24.77
2022-12-24T14:59:04.482Z,24.76
2022-12-24T15:01:34.315Z,24.78
2022-12-24T15:04:01.965Z,24.78
2022-12-24T15:06:31.343Z,24.79
2022-12-24T15:08:57.934Z,24.80
2022-12-24T15:11:24.802Z,24.80
2022-12-24T15:13:54.772Z,24.80
2022-12-24T15:16:25.129Z,24.81
2022-12-24T15:18:55.535Z,24.81
2022-12-24T15:21:33.833Z,24.82
2022-12-24T15:24:00.781Z,24.82
2022-12-24T15:26:34.905Z,24.82
2022-12-24T15:29:06.760Z,24.83
2022-12-24T15:31:33.406Z,24.83
2022-12-24T15:34:00.577Z,24.83
2022-12-24T15:36:31.958Z,24.83
2022-12-24T15:39:01.764Z,24.85
2022-12-24T15:41:33.666Z,24.84
2022-12-24T15:44:02.146Z,24.83
2022-12-24T15:46:29.945Z,24.81
2022-12-24T15:48:58.281Z,24.78
2022-12-24T15:51:29.053Z,24.81
2022-12-24T15:54:01.615Z,24.81
2022-12-24T15:56:36.662Z,24.86
2022-12-24T15:59:24.168Z,24.86
2022-12-24T16:01:50.920Z,24.87
2022-12-24T16:04:26.555Z,24.87
2022-12-24T16:06:55.482Z,24.87
2022-12-24T16:09:32.260Z,24.87
2022-12-24T16:12:03.243Z,24.87
2022-12-24T16:14:31.682Z,24.87
2022-12-24T16:16:58.661Z,24.86
2022-12-24T16:19:27.657Z,24.86
2022-12-24T16:21:56.511Z,24.85
2022-12-24T16:24:25.840Z,24.85
2022-12-24T16:26:53.368Z,24.85
2022-12-24T16:29:20.099Z,24.80
2022-12-24T16:31:58.000Z,24.83
2022-12-24T16:34:29.922Z,24.84
2022-12-24T16:36:57.592Z,24.83
2022-12-24T16:39:34.631Z,24.82
2022-12-24T16:42:21.497Z,24.81
2022-12-24T16:44:48.949Z,24.78
2022-12-24T16:47:21.486Z,24.80
2022-12-24T16:49:48.364Z,24.79
2022-12-24T16:52:28.544Z,24.79
2022-12-24T16:54:57.959Z,24.80
2022-12-24T16:57:25.045Z,24.78
2022-12-24T16:59:52.463Z,24.78
2022-12-24T17:02:21.953Z,24.76
2022-12-24T17:04:49.281Z,24.75
2022-12-24T17:07:18.216Z,24.75
2022-12-24T17:09:44.924Z,24.73
2022-12-24T17:12:11.693Z,24.71
2022-12-24T17:14:39.266Z,24.71
2022-12-24T17:17:06.117Z,24.70
2022-12-24T17:19:32.739Z,24.69
2022-12-24T17:21:59.748Z,24.68
2022-12-24T17:24:26.349Z,24.64
2022-12-24T17:26:52.863Z,24.66
2022-12-24T17:29:19.423Z,24.66
2022-12-24T17:31:46.035Z,24.64
2022-12-24T17:34:13.936Z,24.64
2022-12-24T17:36:40.952Z,24.64
2022-12-24T17:39:07.614Z,24.63
2022-12-24T17:41:34.313Z,24.60
2022-12-24T17:44:01.154Z,24.62
2022-12-24T17:46:27.741Z,24.62
2022-12-24T17:48:55.226Z,24.62
2022-12-24T17:51:23.172Z,24.61
2022-12-24T17:53:50.354Z,24.62
2022-12-24T17:56:17.484Z,24.58
2022-12-24T17:58:45.977Z,24.60
2022-12-24T18:01:14.880Z,24.60
2022-12-24T18:03:42.044Z,24.59
2022-12-24T18:06:11.392Z,24.59
2022-12-24T18:08:39.981Z,24.59
2022-12-24T18:11:21.875Z,24.58
2022-12-24T18:13:49.094Z,24.58
2022-12-24T18:16:30.726Z,24.57
2022-12-24T18:18:57.843Z,24.56
2022-12-24T18:21:26.800Z,24.57
2022-12-24T18:23:56.469Z,24.53
2022-12-24T18:26:25.796Z,24.57
2022-12-24T18:28:53.903Z,24.52
2022-12-24T18:31:21.511Z,24.56
2022-12-24T18:33:50.001Z,24.55
2022-12-24T18:36:17.899Z,24.55
2022-12-24T18:38:44.672Z,24.55
2022-12-24T18:41:14.125Z,24.54
2022-12-24T18:43:41.444Z,24.54
2022-12-24T18:46:19.871Z,24.54
2022-12-24T18:48:47.108Z,24.53
2022-12-24T18:51:14.052Z,24.54
2022-12-24T18:53:40.641Z,24.54
2022-12-24T18:56:17.846Z,24.53
2022-12-24T18:58:44.834Z,24.53
2022-12-24T19:01:19.291Z,24.52
2022-12-24T19:03:47.335Z,24.50
2022-12-24T19:06:14.155Z,24.53
2022-12-24T19:08:59.660Z,24.53
2022-12-24T19:11:29.411Z,24.54
2022-12-24T19:13:57.887Z,24.53
2022-12-24T19:16:25.313Z,24.54
2022-12-24T19:18:51.992Z,24.53
2022-12-24T19:21:18.949Z,24.51
2022-12-24T19:23:46.328Z,24.47
2022-12-24T19:26:16.451Z,24.52
2022-12-24T19:28:43.178Z,24.51
2022-12-24T19:31:12.953Z,24.51
2022-12-24T19:33:43.187Z,24.52
2022-12-24T19:36:12.981Z,24.52
2022-12-24T19:38:40.012Z,24.51
2022-12-24T19:41:10.550Z,24.52
2022-12-24T19:43:38.846Z,24.49
2022-12-24T19:46:05.775Z,24.50
2022-12-24T19:48:32.560Z,24.49
2022-12-24T19:51:01.665Z,24.45
2022-12-24T19:53:28.280Z,24.44
2022-12-24T19:55:54.923Z,24.41
2022-12-24T19:58:21.742Z,24.45
2022-12-24T20:00:48.736Z,24.44
2022-12-24T20:03:15.335Z,24.44
2022-12-24T20:05:42.001Z,24.47
2022-12-24T20:08:08.788Z,24.46
2022-12-24T20:10:42.939Z,24.47
2022-12-24T20:13:10.366Z,24.44
2022-12-24T20:15:41.301Z,24.46
2022-12-24T20:18:09.287Z,24.46
2022-12-24T20:20:35.849Z,24.47
2022-12-24T20:23:03.157Z,24.42
2022-12-24T20:25:29.774Z,24.46
2022-12-24T20:27:57.583Z,24.42
2022-12-24T20:30:24.093Z,24.46
2022-12-24T20:32:54.510Z,24.43
2022-12-24T20:35:21.691Z,24.45
2022-12-24T20:37:48.442Z,24.44
2022-12-24T20:40:15.071Z,24.44
2022-12-24T20:42:41.867Z,24.42
2022-12-24T20:45:08.939Z,24.39
2022-12-24T20:47:35.607Z,24.40
2022-12-24T20:50:03.025Z,24.43
2022-12-24T20:52:29.561Z,24.43
2022-12-24T20:54:57.355Z,24.43
2022-12-24T20:57:27.708Z,24.42
2022-12-24T20:59:56.675Z,24.42
2022-12-24T21:02:23.480Z,24.39
2022-12-24T21:04:51.274Z,24.43
2022-12-24T21:07:19.738Z,24.41
2022-12-24T21:09:46.341Z,24.41
2022-12-24T21:12:31.478Z,24.41
2022-12-24T21:14:58.289Z,24.42
2022-12-24T21:17:24.966Z,24.41
2022-12-24T21:19:51.723Z,24.40
2022-12-24T21:22:19.941Z,24.41
2022-12-24T21:24:46.640Z,24.41
2022-12-24T21:27:13.175Z,24.42
2022-12-24T21:29:39.844Z,24.40
2022-12-24T21:32:06.997Z,24.39
2022-12-24T21:34:33.696Z,24.40
2022-12-24T21:37:00.258Z,24.39
2022-12-24T21:39:26.900Z,24.40
2022-12-24T21:41:53.411Z,24.39
2022-12-24T21:44:20.188Z,24.39
2022-12-24T21:46:46.788Z,24.39
2022-12-24T21:49:32.063Z,24.38
2022-12-24T21:52:00.565Z,24.38
2022-12-24T21:54:28.401Z,24.36
2022-12-24T21:57:17.117Z,24.34
2022-12-24T21:59:44.157Z,24.37
2022-12-24T22:02:13.462Z,24.39
2022-12-24T22:04:41.331Z,24.39
2022-12-24T22:07:26.209Z,24.38
2022-12-24T22:10:11.559Z,24.38
2022-12-24T22:12:38.039Z,24.39
2022-12-24T22:15:06.236Z,24.41
2022-12-24T22:17:32.981Z,24.42
2022-12-24T22:19:59.497Z,24.40
2022-12-24T22:22:26.115Z,24.40
2022-12-24T22:24:53.113Z,24.39
2022-12-24T22:27:19.740Z,24.39
2022-12-24T22:29:46.576Z,24.39
2022-12-24T22:32:13.237Z,24.37
2022-12-24T22:34:40.041Z,24.39
2022-12-24T22:37:06.608Z,24.37
2022-12-24T22:39:33.201Z,24.37
2022-12-24T22:42:02.887Z,24.34
2022-12-24T22:44:29.942Z,24.36
2022-12-24T22:46:56.532Z,24.37
2022-12-24T22:49:23.288Z,24.37
2022-12-24T22:51:49.919Z,24.37
2022-12-24T22:54:16.448Z,24.38
2022-12-24T22:56:43.330Z,24.37
2022-12-24T22:59:14.677Z,24.36
2022-12-24T23:01:44.745Z,24.36
2022-12-24T23:04:12.933Z,24.34
2022-12-24T23:06:40.619Z,24.33
2022-12-24T23:09:08.936Z,24.33
2022-12-24T23:11:35.815Z,24.32
2022-12-24T23:14:21.236Z,24.32
2022-12-24T23:16:47.825Z,24.33
2022-12-24T23:19:14.511Z,24.32
2022-12-24T23:21:41.553Z,24.31
2022-12-24T23:24:10.030Z,24.28
2022-12-24T23:26:36.697Z,24.28
2022-12-24T23:29:03.700Z,24.30
2022-12-24T23:31:30.963Z,24.30
2022-12-24T23:33:57.526Z,24.29
2022-12-24T23:36:24.174Z,24.29
2022-12-24T23:38:52.953Z,24.24
2022-12-24T23:41:19.539Z,24.28
2022-12-24T23:43:46.255Z,24.28
2022-12-24T23:46:15.295Z,24.27
2022-12-24T23:48:42.127Z,24.28
2022-12-24T23:51:17.244Z,24.28
2022-12-24T23:53:43.985Z,24.28
2022-12-24T23:56:11.543Z,24.27
2022-12-24T23:58:40.260Z,24.27
